createdAt,value
2023-03-27T00:00:35.605Z,7.60
2023-03-27T00:03:38.708Z,7.15
2023-03-27T00:06:45.550Z,7.29
2023-03-27T00:09:48.085Z,7.17
2023-03-27T00:12:51.016Z,7.17
2023-03-27T00:15:54.837Z,7.35
2023-03-27T00:18:57.194Z,7.02
2023-03-27T00:22:01.129Z,7.03
2023-03-27T00:25:05.124Z,7.06
2023-03-27T00:28:08.682Z,6.79
2023-03-27T00:31:11.851Z,7.08
2023-03-27T00:34:14.589Z,7.04
2023-03-27T00:37:18.484Z,7.01
2023-03-27T00:40:21.744Z,6.95
2023-03-27T00:43:26.687Z,6.93
2023-03-27T00:46:35.950Z,7.02
2023-03-27T00:49:38.623Z,6.99
2023-03-27T00:52:44.600Z,7.16
2023-03-27T00:55:49.542Z,6.78
2023-03-27T00:58:54.002Z,6.89
2023-03-27T01:01:56.807Z,6.94
2023-03-27T01:04:59.840Z,6.71
2023-03-27T01:08:04.646Z,6.71
2023-03-27T01:11:13.362Z,6.80
2023-03-27T01:14:23.206Z,6.74
2023-03-27T01:17:43.195Z,6.70
2023-03-27T01:21:18.368Z,6.67
2023-03-27T01:24:38.138Z,6.65
2023-03-27T01:28:04.510Z,6.56
2023-03-27T01:31:15.334Z,6.52
2023-03-27T01:34:34.667Z,6.46
2023-03-27T01:37:48.011Z,6.62
2023-03-27T01:40:59.335Z,6.52
2023-03-27T01:44:05.059Z,6.54
2023-03-27T01:47:11.205Z,6.50
2023-03-27T01:50:20.051Z,6.52
2023-03-27T01:53:27.069Z,6.37
2023-03-27T01:56:33.883Z,6.32
2023-03-27T01:59:39.211Z,6.29
2023-03-27T02:02:43.366Z,6.48
2023-03-27T02:05:47.608Z,6.32
2023-03-27T02:08:52.115Z,6.12
2023-03-27T02:11:59.880Z,6.10
2023-03-27T02:15:23.970Z,6.01
2023-03-27T02:18:31.479Z,6.04
2023-03-27T02:21:34.068Z,5.82
2023-03-27T02:24:38.718Z,5.68
2023-03-27T02:27:46.657Z,5.36
2023-03-27T02:31:05.709Z,5.21
2023-03-27T02:34:51.076Z,5.08
2023-03-27T02:37:59.721Z,5.05
2023-03-27T02:41:08.760Z,5.04
2023-03-27T02:44:17.046Z,4.46
2023-03-27T02:47:24.632Z,4.47
2023-03-27T02:50:30.021Z,4.69
2023-03-27T02:53:36.752Z,4.58
2023-03-27T02:56:44.738Z,4.62
2023-03-27T02:59:51.995Z,4.66
2023-03-27T03:03:00.165Z,4.62
2023-03-27T03:06:07.016Z,4.63
2023-03-27T03:09:10.383Z,4.76
2023-03-27T03:12:12.911Z,4.78
2023-03-27T03:15:18.628Z,4.70
2023-03-27T03:18:21.219Z,4.47
2023-03-27T03:21:24.411Z,4.55
2023-03-27T03:24:27.618Z,4.69
2023-03-27T03:27:31.207Z,4.77
2023-03-27T03:30:37.428Z,4.39
2023-03-27T03:33:40.092Z,4.25
2023-03-27T03:36:43.072Z,4.41
2023-03-27T03:39:45.652Z,4.39
2023-03-27T03:42:49.128Z,4.34
2023-03-27T03:45:54.077Z,4.39
2023-03-27T03:48:58.347Z,4.39
2023-03-27T03:52:03.563Z,4.33
2023-03-27T03:55:08.735Z,4.41
2023-03-27T03:58:11.710Z,4.50
2023-03-27T04:01:15.676Z,4.23
2023-03-27T04:04:18.422Z,4.26
2023-03-27T04:07:21.854Z,4.21
2023-03-27T04:10:24.620Z,4.16
2023-03-27T04:13:27.292Z,3.93
2023-03-27T04:16:31.228Z,4.09
2023-03-27T04:19:33.773Z,3.79
2023-03-27T04:22:38.105Z,3.82
2023-03-27T04:25:41.137Z,3.82
2023-03-27T04:28:44.209Z,3.81
2023-03-27T04:31:48.093Z,3.66
2023-03-27T04:34:51.614Z,3.64
2023-03-27T04:37:54.168Z,3.66
2023-03-27T04:40:56.898Z,3.94
2023-03-27T04:43:59.599Z,3.80
2023-03-27T04:47:03.634Z,3.66
2023-03-27T04:50:08.027Z,3.60
2023-03-27T04:53:10.835Z,3.82
2023-03-27T04:56:13.337Z,3.98
2023-03-27T04:59:16.458Z,4.35
2023-03-27T05:02:21.231Z,4.21
2023-03-27T05:05:24.896Z,3.93
2023-03-27T05:08:27.405Z,3.73
2023-03-27T05:11:30.073Z,3.91
2023-03-27T05:14:32.677Z,3.52
2023-03-27T05:17:40.717Z,3.69
2023-03-27T05:20:43.853Z,3.75
2023-03-27T05:23:46.406Z,3.56
2023-03-27T05:26:49.081Z,3.60
2023-03-27T05:29:51.784Z,3.32
2023-03-27T05:32:59.240Z,3.19
2023-03-27T05:36:04.618Z,3.53
2023-03-27T05:39:07.301Z,3.49
2023-03-27T05:42:09.900Z,2.99
2023-03-27T05:45:13.069Z,3.19
2023-03-27T05:48:17.385Z,3.15
2023-03-27T05:51:19.940Z,2.87
2023-03-27T05:54:22.681Z,3.35
2023-03-27T05:57:25.999Z,3.38
2023-03-27T06:00:31.878Z,3.49
2023-03-27T06:03:38.517Z,3.28
2023-03-27T06:06:41.817Z,3.13
2023-03-27T06:09:45.154Z,3.45
2023-03-27T06:12:48.984Z,3.52
2023-03-27T06:15:54.728Z,3.86
2023-03-27T06:18:58.986Z,3.82
2023-03-27T06:22:01.691Z,3.82
2023-03-27T06:25:05.728Z,3.81
2023-03-27T06:28:09.125Z,3.97
2023-03-27T06:31:12.015Z,3.82
2023-03-27T06:34:15.910Z,3.42
2023-03-27T06:37:18.326Z,3.51
2023-03-27T06:40:22.887Z,3.62
2023-03-27T06:43:25.867Z,4.36
2023-03-27T06:46:42.850Z,4.43
2023-03-27T06:49:49.268Z,4.17
2023-03-27T06:52:51.768Z,4.72
2023-03-27T06:55:54.517Z,4.50
2023-03-27T06:58:57.701Z,4.75
2023-03-27T07:02:00.391Z,4.70
2023-03-27T07:05:05.522Z,4.57
2023-03-27T07:08:21.801Z,4.75
2023-03-27T07:11:27.027Z,4.43
2023-03-27T07:14:29.585Z,4.02
2023-03-27T07:17:42.114Z,4.15
2023-03-27T07:20:52.313Z,4.93
2023-03-27T07:23:54.702Z,4.94
2023-03-27T07:26:57.430Z,5.15
2023-03-27T07:30:01.385Z,4.89
2023-03-27T07:33:04.025Z,5.63
2023-03-27T07:36:09.558Z,5.48
2023-03-27T07:39:14.170Z,4.89
2023-03-27T07:42:16.983Z,4.93
2023-03-27T07:45:19.900Z,5.43
2023-03-27T07:48:23.067Z,5.12
2023-03-27T07:51:27.458Z,5.23
2023-03-27T07:54:31.319Z,5.14
2023-03-27T07:57:42.454Z,5.69
2023-03-27T08:00:52.893Z,5.10
2023-03-27T08:03:55.710Z,4.81
2023-03-27T08:07:00.573Z,5.23
2023-03-27T08:10:05.023Z,5.23
2023-03-27T08:13:08.388Z,5.72
2023-03-27T08:16:12.418Z,5.32
2023-03-27T08:19:15.155Z,5.36
2023-03-27T08:22:21.036Z,5.21
2023-03-27T08:25:23.587Z,5.20
2023-03-27T08:28:27.424Z,5.35
2023-03-27T08:31:31.134Z,5.67
2023-03-27T08:34:33.808Z,5.51
2023-03-27T08:37:37.749Z,5.50
2023-03-27T08:40:41.699Z,5.76
2023-03-27T08:43:45.639Z,5.38
2023-03-27T08:46:49.191Z,5.33
2023-03-27T08:49:54.175Z,5.94
2023-03-27T08:52:59.446Z,5.42
2023-03-27T08:56:03.296Z,5.31
2023-03-27T08:59:05.720Z,5.27
2023-03-27T09:02:11.428Z,5.63
2023-03-27T09:05:18.590Z,5.75
2023-03-27T09:08:35.784Z,5.90
2023-03-27T09:11:46.902Z,6.02
2023-03-27T09:14:52.958Z,6.10
2023-03-27T09:18:00.088Z,5.94
2023-03-27T09:21:06.403Z,6.30
2023-03-27T09:24:15.592Z,6.46
2023-03-27T09:27:21.877Z,6.41
2023-03-27T09:30:26.401Z,6.28
2023-03-27T09:33:28.992Z,6.09
2023-03-27T09:36:31.970Z,6.18
2023-03-27T09:39:37.017Z,6.71
2023-03-27T09:42:41.072Z,6.65
2023-03-27T10:03:23.400Z,8.12
2023-03-27T10:06:27.972Z,6.98
2023-03-27T10:09:32.105Z,7.24
2023-03-27T10:12:36.374Z,6.77
2023-03-27T10:15:40.357Z,7.18
2023-03-27T10:18:44.476Z,7.98
2023-03-27T10:21:47.175Z,8.15
2023-03-27T10:24:49.897Z,8.49
2023-03-27T10:27:54.800Z,7.75
2023-03-27T10:31:01.885Z,7.91
2023-03-27T10:34:06.598Z,7.01
2023-03-27T10:37:27.241Z,8.13
2023-03-27T10:40:32.045Z,8.39
2023-03-27T10:43:40.202Z,8.05
2023-03-27T10:46:43.528Z,8.29
2023-03-27T10:49:49.681Z,7.85
2023-03-27T10:53:01.711Z,6.54
2023-03-27T10:56:12.262Z,6.91
2023-03-27T10:59:25.462Z,7.40
2023-03-27T11:02:38.906Z,8.65
2023-03-27T11:05:44.623Z,9.05
2023-03-27T11:08:55.965Z,8.22
2023-03-27T11:12:01.055Z,7.88
2023-03-27T11:15:09.100Z,8.26
2023-03-27T11:18:15.393Z,9.30
2023-03-27T11:21:22.181Z,9.25
2023-03-27T11:24:30.969Z,8.54
2023-03-27T11:27:37.119Z,8.68
2023-03-27T11:30:44.358Z,8.34
2023-03-27T11:33:51.333Z,9.19
2023-03-27T11:36:56.303Z,9.92
2023-03-27T11:40:05.105Z,8.23
2023-03-27T11:43:10.879Z,8.98
2023-03-27T11:46:29.675Z,7.81
2023-03-27T11:49:44.736Z,8.22
2023-03-27T11:52:56.634Z,7.96
2023-03-27T11:56:10.902Z,8.03
2023-03-27T11:59:28.334Z,7.73
2023-03-27T12:02:55.032Z,8.26
2023-03-27T12:06:05.373Z,10.18
2023-03-27T12:09:33.590Z,11.11
2023-03-27T12:12:52.001Z,10.62
2023-03-27T12:16:03.119Z,10.03
2023-03-27T12:19:28.479Z,9.59
2023-03-27T12:22:42.445Z,10.72
2023-03-27T12:25:58.126Z,10.47
2023-03-27T12:29:23.426Z,10.62
2023-03-27T12:32:42.897Z,11.31
2023-03-27T12:35:49.343Z,10.31
2023-03-27T12:38:52.940Z,10.36
2023-03-27T12:42:15.959Z,9.91
2023-03-27T12:45:22.442Z,9.93
2023-03-27T12:48:25.969Z,11.17
2023-03-27T12:51:38.755Z,11.20
2023-03-27T12:54:42.387Z,11.94
2023-03-27T12:57:47.639Z,11.18
2023-03-27T13:00:54.637Z,10.24
2023-03-27T13:04:12.792Z,11.59
2023-03-27T13:07:20.755Z,16.57
2023-03-27T13:10:34.759Z,14.58
2023-03-27T13:13:51.631Z,11.14
2023-03-27T13:17:02.143Z,10.38
2023-03-27T13:20:14.157Z,9.40
2023-03-27T13:23:41.732Z,8.83
2023-03-27T13:26:54.023Z,7.99
2023-03-27T13:29:58.031Z,7.51
2023-03-27T13:33:12.000Z,7.50
2023-03-27T13:36:19.741Z,7.62
2023-03-27T13:39:24.611Z,8.50
2023-03-27T13:42:29.407Z,7.85
2023-03-27T13:45:40.094Z,7.72
2023-03-27T13:49:04.827Z,7.78
2023-03-27T13:52:22.906Z,7.57
2023-03-27T13:55:36.876Z,6.93
2023-03-27T13:58:44.703Z,5.55
2023-03-27T14:01:58.037Z,6.55
2023-03-27T14:05:10.904Z,8.54
2023-03-27T14:08:23.591Z,9.34
2023-03-27T14:11:41.865Z,9.71
2023-03-27T14:14:53.945Z,7.89
2023-03-27T14:18:06.678Z,15.71
2023-03-27T14:21:11.678Z,18.52
2023-03-27T14:24:25.558Z,24.03
2023-03-27T14:27:28.057Z,21.62
2023-03-27T14:30:32.596Z,22.99
2023-03-27T14:33:39.139Z,20.95
2023-03-27T14:36:45.940Z,15.59
2023-03-27T14:39:54.158Z,11.69
2023-03-27T14:42:57.874Z,9.74
2023-03-27T14:46:01.521Z,11.12
2023-03-27T14:49:05.717Z,11.69
2023-03-27T14:52:09.000Z,12.07
2023-03-27T14:55:13.596Z,12.43
2023-03-27T14:58:18.542Z,16.58
2023-03-27T15:01:21.305Z,17.06
2023-03-27T15:04:25.708Z,16.58
2023-03-27T15:07:30.500Z,14.81
2023-03-27T15:10:33.601Z,14.66
2023-03-27T15:13:36.845Z,13.75
2023-03-27T15:16:39.901Z,12.82
2023-03-27T15:19:48.870Z,11.36
2023-03-27T15:22:55.407Z,10.47
2023-03-27T15:26:01.710Z,9.51
2023-03-27T15:29:07.708Z,8.82
2023-03-27T15:32:14.609Z,7.56
2023-03-27T15:35:20.613Z,6.93
2023-03-27T15:38:28.876Z,6.90
2023-03-27T15:41:38.564Z,6.77
2023-03-27T15:44:41.298Z,6.37
2023-03-27T15:47:45.468Z,5.79
2023-03-27T15:50:59.514Z,5.78
2023-03-27T15:54:01.963Z,6.05
2023-03-27T15:57:09.768Z,6.40
2023-03-27T16:00:14.929Z,6.90
2023-03-27T16:03:21.351Z,6.80
2023-03-27T16:06:28.182Z,6.45
2023-03-27T16:09:34.898Z,6.63
2023-03-27T16:12:51.905Z,6.43
2023-03-27T16:15:58.785Z,6.35
2023-03-27T16:19:04.021Z,6.57
2023-03-27T16:22:08.338Z,6.60
2023-03-27T16:25:13.134Z,6.37
2023-03-27T16:28:17.558Z,7.87
2023-03-27T16:31:20.952Z,9.68
2023-03-27T16:34:23.771Z,7.92
2023-03-27T16:37:28.329Z,6.65
2023-03-27T16:40:31.115Z,6.39
2023-03-27T16:43:34.026Z,6.60
2023-03-27T16:46:37.202Z,6.63
2023-03-27T16:49:40.067Z,6.95
2023-03-27T16:52:43.982Z,7.07
2023-03-27T16:55:46.561Z,7.18
2023-03-27T16:58:49.120Z,7.44
2023-03-27T17:01:51.656Z,7.64
2023-03-27T17:04:54.197Z,6.97
2023-03-27T17:07:58.181Z,6.72
2023-03-27T17:11:03.014Z,6.60
2023-03-27T17:14:05.832Z,6.29
2023-03-27T17:17:08.501Z,6.11
2023-03-27T17:20:12.036Z,5.83
2023-03-27T17:23:16.282Z,5.65
2023-03-27T17:26:23.635Z,5.50
2023-03-27T17:29:26.370Z,5.35
2023-03-27T17:32:29.066Z,5.17
2023-03-27T17:35:31.758Z,5.05
2023-03-27T17:38:36.089Z,5.05
2023-03-27T17:41:38.604Z,5.01
2023-03-27T17:44:41.508Z,5.08
2023-03-27T17:47:44.477Z,5.04
2023-03-27T17:50:54.785Z,4.90
2023-03-27T17:54:02.112Z,4.87
2023-03-27T17:57:05.352Z,4.80
2023-03-27T18:00:10.515Z,4.65
2023-03-27T18:03:13.407Z,4.75
2023-03-27T18:06:17.636Z,4.78
2023-03-27T18:09:21.717Z,4.71
2023-03-27T18:12:24.356Z,4.63
2023-03-27T18:15:27.081Z,4.70
2023-03-27T18:18:29.651Z,4.64
2023-03-27T18:21:32.192Z,4.63
2023-03-27T18:24:47.661Z,4.60
2023-03-27T18:28:16.094Z,4.64
2023-03-27T18:31:33.364Z,4.66
2023-03-27T18:34:44.870Z,4.59
2023-03-27T18:37:47.514Z,4.57
2023-03-27T18:40:52.144Z,4.53
2023-03-27T18:43:54.648Z,4.49
2023-03-27T18:46:57.152Z,4.49
2023-03-27T18:49:59.836Z,4.51
2023-03-27T18:53:02.815Z,4.64
2023-03-27T18:56:08.028Z,4.74
2023-03-27T18:59:11.071Z,4.80
2023-03-27T19:02:15.406Z,4.60
2023-03-27T19:05:18.332Z,4.48
2023-03-27T19:08:21.520Z,4.48
2023-03-27T19:11:25.987Z,4.60
2023-03-27T19:14:28.566Z,4.82
2023-03-27T19:17:31.162Z,5.14
2023-03-27T19:20:33.775Z,5.31
2023-03-27T19:23:36.311Z,5.15
2023-03-27T19:26:41.011Z,4.35
2023-03-27T19:29:43.543Z,3.94
2023-03-27T19:32:46.327Z,3.80
2023-03-27T19:35:53.114Z,3.79
2023-03-27T19:38:55.724Z,4.03
2023-03-27T19:41:59.621Z,4.02
2023-03-27T19:45:04.260Z,3.95
2023-03-27T19:48:06.937Z,3.86
2023-03-27T19:51:09.557Z,3.80
2023-03-27T19:54:12.050Z,3.92
2023-03-27T19:57:16.157Z,4.13
2023-03-27T20:00:19.823Z,4.36
2023-03-27T20:03:24.009Z,4.18
2023-03-27T20:06:28.802Z,4.12
2023-03-27T20:09:31.386Z,4.13
2023-03-27T20:12:35.229Z,3.99
2023-03-27T20:15:39.916Z,3.78
2023-03-27T20:18:42.723Z,3.57
2023-03-27T20:21:45.349Z,3.42
2023-03-27T20:24:47.875Z,3.40
2023-03-27T20:27:52.140Z,3.25
2023-03-27T20:30:54.683Z,3.25
2023-03-27T20:33:57.138Z,3.29
2023-03-27T20:37:00.789Z,3.54
2023-03-27T20:40:06.139Z,3.63
2023-03-27T20:43:10.426Z,3.75
2023-03-27T20:46:14.124Z,3.92
2023-03-27T20:49:37.608Z,4.18
2023-03-27T20:52:44.954Z,4.27
2023-03-27T20:55:59.057Z,4.31
2023-03-27T20:59:03.920Z,4.30
2023-03-27T21:02:06.883Z,4.21
2023-03-27T21:05:09.670Z,4.30
2023-03-27T21:08:12.274Z,4.19
2023-03-27T21:11:15.131Z,4.04
2023-03-27T21:14:19.249Z,3.85
2023-03-27T21:17:21.818Z,3.83
2023-03-27T21:20:24.479Z,3.82
2023-03-27T21:23:27.062Z,3.87
2023-03-27T21:26:29.668Z,3.74
2023-03-27T21:29:33.658Z,3.67
2023-03-27T21:32:36.485Z,3.70
2023-03-27T21:35:41.378Z,3.73
2023-03-27T21:38:44.820Z,3.67
2023-03-27T21:41:47.286Z,3.60
2023-03-27T21:44:54.859Z,3.48
2023-03-27T21:47:59.367Z,3.38
2023-03-27T21:51:02.726Z,3.25
2023-03-27T21:54:05.607Z,3.20
2023-03-27T21:57:08.316Z,3.17
2023-03-27T22:00:14.443Z,3.18
2023-03-27T22:03:18.535Z,3.25
2023-03-27T22:06:21.058Z,3.18
2023-03-27T22:09:23.542Z,3.18
2023-03-27T22:12:26.188Z,3.21
2023-03-27T22:15:30.396Z,3.19
2023-03-27T22:18:33.183Z,3.18
2023-03-27T22:21:35.870Z,3.06
2023-03-27T22:24:38.708Z,3.22
2023-03-27T22:27:41.343Z,3.16
2023-03-27T22:30:45.256Z,2.89
2023-03-27T22:33:47.762Z,2.90
2023-03-27T22:36:50.305Z,2.90
2023-03-27T22:39:53.062Z,2.92
2023-03-27T22:42:55.934Z,2.93
2023-03-27T22:46:05.669Z,2.84
2023-03-27T22:49:08.426Z,2.72
2023-03-27T22:52:11.054Z,2.79
2023-03-27T22:55:13.518Z,2.86
2023-03-27T22:58:16.494Z,2.95
2023-03-27T23:01:20.485Z,3.05
2023-03-27T23:04:23.095Z,3.07
2023-03-27T23:07:25.666Z,3.06
2023-03-27T23:10:28.133Z,3.05
2023-03-27T23:13:31.886Z,3.12
2023-03-27T23:16:36.717Z,3.09
2023-03-27T23:19:39.406Z,3.03
2023-03-27T23:22:41.977Z,2.91
2023-03-27T23:25:44.507Z,2.84
2023-03-27T23:28:47.152Z,2.84
2023-03-27T23:31:51.224Z,2.99
2023-03-27T23:34:53.712Z,2.98
2023-03-27T23:37:56.863Z,2.87
2023-03-27T23:41:00.598Z,2.81
2023-03-27T23:44:03.195Z,2.93
2023-03-27T23:47:07.278Z,2.94
2023-03-27T23:50:10.414Z,2.98
2023-03-27T23:53:13.368Z,3.05
2023-03-27T23:56:16.101Z,2.93
2023-03-27T23:59:18.662Z,2.84
